Impacts METAR Board
IDs:

KPWG - Mc Gregor Executive, TX, US

Updated at: 1000 UTC 13 Aug 2022
Potential Impact None Slight Moderate High
Time 12/22Z 12/23Z 13/00Z 13/01Z 13/02Z 13/03Z 13/04Z 13/05Z 13/06Z 13/07Z 13/08Z 13/09Z 13/10Z
Temp97 96 96 94 85 85 84 82 82 80 78 77 77
Dewpt67 67 67 67 74 73 71 71 71 70 73 71 70
Altim29.95 29.94 29.93 29.94 29.96 29.97 30.00 30.01 30.01 30.01 30.01 30.01 30.01
VIS10 10 10 10 10 10 10 10 10 10 10 10 10
CIG-- -- -- -- -- 90 -- -- -- -- -- -- --
CoverCLRFEWCLRFEWFEWBKNCLRFEWCLRFEWCLRCLRCLR
FltCatVFRVFRVFRVFRVFRVFRVFRVFRVFRVFRVFRVFRVFR
WX--------------------------
WDir040100100901009013000031010
WSpd0 12 11 8 6 4 4 5 0 0 0 3 3
WGst-- -- 15 -- -- -- -- -- -- -- -- -- --
Raw hourly METARs
KPWG 122156Z AUTO 00000KT 10SM CLR 36/19 A2995 RMK AO2 SLP131 T03610194
KPWG 122256Z AUTO 04012KT 10SM FEW070 36/19 A2994 RMK AO2 SLP128 T03560194
KPWG 122356Z AUTO 10011G15KT 040V130 10SM CLR 36/19 A2993 RMK AO2 SLP125 6//// T03560194 10372 20333 56011
KPWG 130056Z AUTO 10008KT 10SM FEW070 34/19 A2994 RMK AO2 SLP130 T03440194
KPWG 130156Z AUTO 09006KT 10SM FEW075 29/23 A2996 RMK AO2 RAB19E48 SLP138 P0002 T02940233
KPWG 130256Z AUTO 10004KT 10SM SCT070 BKN090 29/23 A2997 RMK AO2 SLP142 60002 T02940228 51016
KPWG 130356Z AUTO 09004KT 10SM CLR 29/22 A3000 RMK AO2 SLP149 T02890217
KPWG 130456Z AUTO 13005KT 10SM FEW070 28/22 A3001 RMK AO2 SLP153 T02780217
KPWG 130556Z AUTO 00000KT 10SM CLR 28/22 A3001 RMK AO2 SLP154 60002 T02780217 10361 20272 403720239 51013
KPWG 130656Z AUTO 00000KT 10SM FEW080 27/21 A3001 RMK AO2 SLP153 T02670211
KPWG 130756Z AUTO 00000KT 10SM CLR 26/23 A3001 RMK AO2 SLP155 T02560228
KPWG 130856Z AUTO 31003KT 10SM CLR 25/22 A3001 RMK AO2 SLP154 T02500217 58000
KPWG 130956Z AUTO 01003KT 10SM CLR 25/21 A3001 RMK AO2 SLP155 T02500211